sensor_id;sensor_type;location;lat;lon;timestamp;pressure;altitude;pressure_sealevel;temperature;humidity
55066;BME280;40964;42.114;24.220;2023-04-10T00:01:27;98008.34;;;8.30;72.08
55066;BME280;40964;42.114;24.220;2023-04-10T00:03:52;98011.53;;;8.25;72.44
55066;BME280;40964;42.114;24.220;2023-04-10T00:06:18;98005.47;;;8.18;72.57
55066;BME280;40964;42.114;24.220;2023-04-10T00:08:43;97997.78;;;8.16;72.64
55066;BME280;40964;42.114;24.220;2023-04-10T00:11:09;98000.66;;;8.21;72.69
55066;BME280;40964;42.114;24.220;2023-04-10T00:13:34;97999.22;;;8.25;72.08
55066;BME280;40964;42.114;24.220;2023-04-10T00:15:59;97989.97;;;8.23;72.08
55066;BME280;40964;42.114;24.220;2023-04-10T00:18:25;97992.38;;;8.18;72.27
55066;BME280;40964;42.114;24.220;2023-04-10T00:20:51;97985.09;;;8.13;72.73
55066;BME280;40964;42.114;24.220;2023-04-10T00:23:16;97986.94;;;8.19;72.65
55066;BME280;40964;42.114;24.220;2023-04-10T00:25:42;97987.31;;;8.16;72.94
55066;BME280;40964;42.114;24.220;2023-04-10T00:28:07;97981.91;;;8.18;73.40
55066;BME280;40964;42.114;24.220;2023-04-10T00:30:33;97935.63;;;7.90;73.09
55066;BME280;40964;42.114;24.220;2023-04-10T00:32:58;97968.78;;;8.11;73.55
55066;BME280;40964;42.114;24.220;2023-04-10T00:35:23;97928.78;;;7.83;73.71
55066;BME280;40964;42.114;24.220;2023-04-10T00:40:37;97961.84;;;7.97;73.85
55066;BME280;40964;42.114;24.220;2023-04-10T00:43:03;97956.78;;;7.89;74.13
55066;BME280;40964;42.114;24.220;2023-04-10T00:45:28;97947.50;;;7.86;74.02
55066;BME280;40964;42.114;24.220;2023-04-10T00:47:54;97943.84;;;7.81;73.72
55066;BME280;40964;42.114;24.220;2023-04-10T00:50:21;97932.56;;;7.74;72.79
55066;BME280;40964;42.114;24.220;2023-04-10T00:52:47;97950.53;;;7.83;72.11
55066;BME280;40964;42.114;24.220;2023-04-10T00:55:13;97941.22;;;7.81;70.95
55066;BME280;40964;42.114;24.220;2023-04-10T00:57:44;97939.81;;;7.78;70.70
55066;BME280;40964;42.114;24.220;2023-04-10T01:00:14;97937.22;;;7.78;70.80
55066;BME280;40964;42.114;24.220;2023-04-10T01:02:40;97941.88;;;7.83;70.82
55066;BME280;40964;42.114;24.220;2023-04-10T01:05:07;97925.53;;;7.74;70.67
55066;BME280;40964;42.114;24.220;2023-04-10T01:10:35;97939.00;;;7.78;70.86
55066;BME280;40964;42.114;24.220;2023-04-10T01:16:18;97929.16;;;7.73;71.08
55066;BME280;40964;42.114;24.220;2023-04-10T01:18:40;97929.47;;;7.63;71.44
55066;BME280;40964;42.114;24.220;2023-04-10T01:21:10;97937.31;;;7.57;71.13
55066;BME280;40964;42.114;24.220;2023-04-10T01:26:47;97936.81;;;7.40;71.83
55066;BME280;40964;42.114;24.220;2023-04-10T01:29:17;97933.75;;;7.30;72.47
55066;BME280;40964;42.114;24.220;2023-04-10T01:32:10;97942.28;;;7.17;73.23
55066;BME280;40964;42.114;24.220;2023-04-10T01:34:44;97935.59;;;7.08;72.97
55066;BME280;40964;42.114;24.220;2023-04-10T01:37:23;97943.56;;;7.00;73.35
55066;BME280;40964;42.114;24.220;2023-04-10T01:39:53;97944.91;;;6.89;73.62
55066;BME280;40964;42.114;24.220;2023-04-10T01:42:24;97953.88;;;6.80;73.53
55066;BME280;40964;42.114;24.220;2023-04-10T01:44:51;97935.84;;;6.64;73.86
55066;BME280;40964;42.114;24.220;2023-04-10T01:47:18;97952.91;;;6.60;74.18
55066;BME280;40964;42.114;24.220;2023-04-10T01:49:46;97951.59;;;6.49;74.86
55066;BME280;40964;42.114;24.220;2023-04-10T01:52:13;97952.06;;;6.38;75.64
55066;BME280;40964;42.114;24.220;2023-04-10T01:54:40;97946.34;;;6.28;75.86
55066;BME280;40964;42.114;24.220;2023-04-10T01:57:08;97945.75;;;6.11;76.87
55066;BME280;40964;42.114;24.220;2023-04-10T01:59:34;97946.50;;;6.05;77.62
55066;BME280;40964;42.114;24.220;2023-04-10T02:02:02;97947.41;;;5.97;78.17
55066;BME280;40964;42.114;24.220;2023-04-10T02:04:28;97933.28;;;5.91;77.63
55066;BME280;40964;42.114;24.220;2023-04-10T02:07:10;97942.81;;;5.99;77.64
55066;BME280;40964;42.114;24.220;2023-04-10T02:10:09;97943.28;;;6.03;77.36
55066;BME280;40964;42.114;24.220;2023-04-10T02:12:52;97942.97;;;6.12;76.06
55066;BME280;40964;42.114;24.220;2023-04-10T02:15:22;97941.59;;;6.16;75.81
55066;BME280;40964;42.114;24.220;2023-04-10T02:17:48;97936.19;;;6.18;76.18
55066;BME280;40964;42.114;24.220;2023-04-10T02:20:15;97932.84;;;6.24;75.48
55066;BME280;40964;42.114;24.220;2023-04-10T02:22:43;97935.66;;;6.22;75.35
55066;BME280;40964;42.114;24.220;2023-04-10T02:25:09;97930.06;;;6.25;75.10
55066;BME280;40964;42.114;24.220;2023-04-10T02:27:35;97937.16;;;6.32;74.83
55066;BME280;40964;42.114;24.220;2023-04-10T02:30:02;97938.19;;;6.37;74.90
55066;BME280;40964;42.114;24.220;2023-04-10T02:32:28;97935.16;;;6.34;74.18
55066;BME280;40964;42.114;24.220;2023-04-10T02:34:54;97924.22;;;6.23;74.73
55066;BME280;40964;42.114;24.220;2023-04-10T02:37:20;97937.47;;;6.22;75.17
55066;BME280;40964;42.114;24.220;2023-04-10T02:39:46;97929.06;;;6.26;75.08
55066;BME280;40964;42.114;24.220;2023-04-10T02:42:11;97930.31;;;6.31;74.94
55066;BME280;40964;42.114;24.220;2023-04-10T02:44:37;97921.84;;;6.29;73.92
55066;BME280;40964;42.114;24.220;2023-04-10T02:47:04;97919.97;;;6.22;74.40
55066;BME280;40964;42.114;24.220;2023-04-10T02:49:30;97921.78;;;6.22;73.97
55066;BME280;40964;42.114;24.220;2023-04-10T02:51:56;97921.09;;;6.13;75.29
55066;BME280;40964;42.114;24.220;2023-04-10T02:54:21;97916.38;;;6.02;76.04
55066;BME280;40964;42.114;24.220;2023-04-10T02:56:47;97922.91;;;6.13;75.86
55066;BME280;40964;42.114;24.220;2023-04-10T02:59:12;97921.72;;;6.15;75.18
55066;BME280;40964;42.114;24.220;2023-04-10T03:01:38;97918.72;;;6.18;74.75
55066;BME280;40964;42.114;24.220;2023-04-10T03:04:04;97921.31;;;6.18;75.05
55066;BME280;40964;42.114;24.220;2023-04-10T03:06:29;97915.69;;;6.15;74.39
55066;BME280;40964;42.114;24.220;2023-04-10T03:08:55;97909.66;;;6.14;74.75
55066;BME280;40964;42.114;24.220;2023-04-10T03:11:21;97913.25;;;6.13;75.12
55066;BME280;40964;42.114;24.220;2023-04-10T03:13:46;97921.53;;;6.17;75.35
55066;BME280;40964;42.114;24.220;2023-04-10T03:16:13;97913.94;;;6.22;74.87
55066;BME280;40964;42.114;24.220;2023-04-10T03:18:38;97912.16;;;6.22;75.40
55066;BME280;40964;42.114;24.220;2023-04-10T03:21:04;97919.88;;;6.31;75.25
55066;BME280;40964;42.114;24.220;2023-04-10T03:23:30;97917.25;;;6.31;75.05
55066;BME280;40964;42.114;24.220;2023-04-10T03:25:56;97920.28;;;6.34;74.64
55066;BME280;40964;42.114;24.220;2023-04-10T03:28:22;97922.72;;;6.36;75.04
55066;BME280;40964;42.114;24.220;2023-04-10T03:30:48;97918.28;;;6.36;74.85
55066;BME280;40964;42.114;24.220;2023-04-10T03:33:14;97915.00;;;6.28;75.28
55066;BME280;40964;42.114;24.220;2023-04-10T03:35:40;97907.53;;;6.24;76.64
55066;BME280;40964;42.114;24.220;2023-04-10T03:40:33;97919.91;;;6.37;76.78
55066;BME280;40964;42.114;24.220;2023-04-10T03:43:01;97919.59;;;6.47;75.91
55066;BME280;40964;42.114;24.220;2023-04-10T03:45:26;97915.69;;;6.58;74.68
55066;BME280;40964;42.114;24.220;2023-04-10T03:47:52;97914.25;;;6.55;75.01
55066;BME280;40964;42.114;24.220;2023-04-10T03:50:18;97905.44;;;6.56;74.97
55066;BME280;40964;42.114;24.220;2023-04-10T03:52:43;97904.06;;;6.60;74.56
55066;BME280;40964;42.114;24.220;2023-04-10T03:55:09;97925.31;;;6.78;74.20
55066;BME280;40964;42.114;24.220;2023-04-10T03:57:34;97917.28;;;6.80;74.63
55066;BME280;40964;42.114;24.220;2023-04-10T04:00:00;97920.19;;;6.92;74.40
55066;BME280;40964;42.114;24.220;2023-04-10T04:02:25;97917.19;;;6.95;74.08
55066;BME280;40964;42.114;24.220;2023-04-10T04:04:51;97919.88;;;7.01;73.95
55066;BME280;40964;42.114;24.220;2023-04-10T04:07:16;97909.69;;;7.13;73.73
55066;BME280;40964;42.114;24.220;2023-04-10T04:09:42;97912.81;;;7.36;73.19
55066;BME280;40964;42.114;24.220;2023-04-10T04:12:07;97910.28;;;7.50;72.55
55066;BME280;40964;42.114;24.220;2023-04-10T04:14:33;97916.59;;;7.62;72.43
55066;BME280;40964;42.114;24.220;2023-04-10T04:16:58;97916.06;;;7.73;71.29
55066;BME280;40964;42.114;24.220;2023-04-10T04:19:24;97916.50;;;7.90;70.74
55066;BME280;40964;42.114;24.220;2023-04-10T04:21:50;97918.97;;;8.05;69.81
55066;BME280;40964;42.114;24.220;2023-04-10T04:24:15;97908.75;;;8.23;69.32
55066;BME280;40964;42.114;24.220;2023-04-10T04:26:40;97916.69;;;8.49;68.82
55066;BME280;40964;42.114;24.220;2023-04-10T04:29:06;97922.97;;;8.75;67.40
55066;BME280;40964;42.114;24.220;2023-04-10T04:31:31;97914.66;;;9.04;67.14
55066;BME280;40964;42.114;24.220;2023-04-10T04:34:00;97919.25;;;9.49;65.70
55066;BME280;40964;42.114;24.220;2023-04-10T04:36:26;97920.53;;;9.91;63.70
55066;BME280;40964;42.114;24.220;2023-04-10T04:38:52;97915.13;;;10.17;62.89
55066;BME280;40964;42.114;24.220;2023-04-10T04:41:18;97920.66;;;10.47;61.83
55066;BME280;40964;42.114;24.220;2023-04-10T04:43:44;97926.56;;;10.68;60.22
55066;BME280;40964;42.114;24.220;2023-04-10T04:46:10;97926.31;;;10.76;59.98
55066;BME280;40964;42.114;24.220;2023-04-10T04:48:35;97927.09;;;10.76;59.00
55066;BME280;40964;42.114;24.220;2023-04-10T04:51:00;97930.94;;;10.80;56.43
55066;BME280;40964;42.114;24.220;2023-04-10T04:53:26;97927.88;;;10.84;56.07
55066;BME280;40964;42.114;24.220;2023-04-10T04:55:51;97929.16;;;10.74;54.97
55066;BME280;40964;42.114;24.220;2023-04-10T04:58:17;97937.63;;;10.51;54.92
55066;BME280;40964;42.114;24.220;2023-04-10T05:00:42;97936.19;;;10.49;54.32
55066;BME280;40964;42.114;24.220;2023-04-10T05:03:08;97940.34;;;10.32;54.92
55066;BME280;40964;42.114;24.220;2023-04-10T05:05:34;97934.78;;;10.08;55.76
55066;BME280;40964;42.114;24.220;2023-04-10T05:07:59;97930.47;;;10.27;56.41
55066;BME280;40964;42.114;24.220;2023-04-10T05:10:25;97931.63;;;10.38;56.32
55066;BME280;40964;42.114;24.220;2023-04-10T05:12:50;97934.88;;;10.33;56.54
55066;BME280;40964;42.114;24.220;2023-04-10T05:15:16;97914.78;;;10.07;60.80
55066;BME280;40964;42.114;24.220;2023-04-10T05:17:41;97933.72;;;10.22;63.09
55066;BME280;40964;42.114;24.220;2023-04-10T05:20:07;97924.56;;;10.32;63.91
55066;BME280;40964;42.114;24.220;2023-04-10T05:22:34;97931.19;;;10.41;62.91
55066;BME280;40964;42.114;24.220;2023-04-10T05:24:59;97931.03;;;10.36;62.70
55066;BME280;40964;42.114;24.220;2023-04-10T05:27:25;97942.97;;;10.32;61.64
55066;BME280;40964;42.114;24.220;2023-04-10T05:29:51;97938.00;;;10.17;63.64
55066;BME280;40964;42.114;24.220;2023-04-10T05:32:16;97942.22;;;10.18;68.68
55066;BME280;40964;42.114;24.220;2023-04-10T05:34:42;97937.34;;;10.28;70.36
55066;BME280;40964;42.114;24.220;2023-04-10T05:37:07;97947.66;;;10.30;70.35
55066;BME280;40964;42.114;24.220;2023-04-10T05:39:33;97937.72;;;10.32;72.92
55066;BME280;40964;42.114;24.220;2023-04-10T05:41:58;97934.50;;;10.30;72.42
55066;BME280;40964;42.114;24.220;2023-04-10T05:44:25;97943.75;;;10.39;71.38
55066;BME280;40964;42.114;24.220;2023-04-10T05:46:50;97938.69;;;10.44;70.29
55066;BME280;40964;42.114;24.220;2023-04-10T05:49:16;97941.94;;;10.39;69.99
55066;BME280;40964;42.114;24.220;2023-04-10T05:51:41;97947.22;;;10.33;71.29
55066;BME280;40964;42.114;24.220;2023-04-10T05:54:07;97943.97;;;10.37;71.22
55066;BME280;40964;42.114;24.220;2023-04-10T05:56:32;97951.06;;;10.37;71.17
55066;BME280;40964;42.114;24.220;2023-04-10T05:58:58;97942.91;;;10.45;70.92
55066;BME280;40964;42.114;24.220;2023-04-10T06:01:23;97946.31;;;10.52;71.61
55066;BME280;40964;42.114;24.220;2023-04-10T06:03:48;97942.03;;;10.51;71.17
55066;BME280;40964;42.114;24.220;2023-04-10T06:06:14;97948.50;;;10.55;68.85
55066;BME280;40964;42.114;24.220;2023-04-10T06:08:39;97950.44;;;10.66;67.39
55066;BME280;40964;42.114;24.220;2023-04-10T06:11:05;97942.91;;;10.76;66.26
55066;BME280;40964;42.114;24.220;2023-04-10T06:13:31;97941.69;;;10.79;61.36
55066;BME280;40964;42.114;24.220;2023-04-10T06:15:57;97946.94;;;10.79;58.75
55066;BME280;40964;42.114;24.220;2023-04-10T06:18:22;97939.38;;;10.89;58.83
55066;BME280;40964;42.114;24.220;2023-04-10T06:20:48;97935.00;;;11.01;56.81
55066;BME280;40964;42.114;24.220;2023-04-10T06:23:13;97940.38;;;11.13;55.52
55066;BME280;40964;42.114;24.220;2023-04-10T06:25:39;97950.50;;;11.16;55.26
55066;BME280;40964;42.114;24.220;2023-04-10T06:28:05;97940.63;;;11.30;54.05
55066;BME280;40964;42.114;24.220;2023-04-10T06:30:31;97933.69;;;11.35;54.46
55066;BME280;40964;42.114;24.220;2023-04-10T06:32:58;97941.56;;;11.17;62.79
55066;BME280;40964;42.114;24.220;2023-04-10T06:35:24;97936.88;;;10.94;64.95
55066;BME280;40964;42.114;24.220;2023-04-10T06:37:49;97941.72;;;10.72;71.24
55066;BME280;40964;42.114;24.220;2023-04-10T06:40:15;97940.81;;;10.15;74.51
55066;BME280;40964;42.114;24.220;2023-04-10T06:42:40;97941.22;;;10.26;74.83
55066;BME280;40964;42.114;24.220;2023-04-10T06:45:07;97942.91;;;10.45;74.74
55066;BME280;40964;42.114;24.220;2023-04-10T06:47:32;97936.97;;;10.25;74.40
55066;BME280;40964;42.114;24.220;2023-04-10T06:49:58;97935.38;;;10.10;76.16
55066;BME280;40964;42.114;24.220;2023-04-10T06:52:24;97943.06;;;10.05;74.91
55066;BME280;40964;42.114;24.220;2023-04-10T06:54:49;97937.78;;;10.25;73.89
55066;BME280;40964;42.114;24.220;2023-04-10T06:57:14;97944.41;;;10.34;73.25
55066;BME280;40964;42.114;24.220;2023-04-10T06:59:40;97936.09;;;10.31;73.06
55066;BME280;40964;42.114;24.220;2023-04-10T07:02:06;97951.56;;;10.52;72.74
55066;BME280;40964;42.114;24.220;2023-04-10T07:04:32;97952.28;;;10.66;72.21
55066;BME280;40964;42.114;24.220;2023-04-10T07:06:57;97955.97;;;10.90;72.12
55066;BME280;40964;42.114;24.220;2023-04-10T07:09:25;97954.34;;;10.89;71.97
55066;BME280;40964;42.114;24.220;2023-04-10T07:11:52;97956.25;;;11.06;70.86
55066;BME280;40964;42.114;24.220;2023-04-10T07:14:17;97953.22;;;11.28;70.08
55066;BME280;40964;42.114;24.220;2023-04-10T07:16:43;97957.47;;;11.47;68.70
55066;BME280;40964;42.114;24.220;2023-04-10T07:19:08;97955.06;;;11.64;60.35
55066;BME280;40964;42.114;24.220;2023-04-10T07:21:34;97960.38;;;11.82;60.21
55066;BME280;40964;42.114;24.220;2023-04-10T07:24:00;97954.00;;;12.08;56.97
55066;BME280;40964;42.114;24.220;2023-04-10T07:26:26;97962.69;;;12.27;53.98
55066;BME280;40964;42.114;24.220;2023-04-10T07:28:51;97964.00;;;12.48;53.88
55066;BME280;40964;42.114;24.220;2023-04-10T07:31:16;97953.69;;;12.76;53.70
55066;BME280;40964;42.114;24.220;2023-04-10T07:33:43;97955.78;;;12.86;49.58
55066;BME280;40964;42.114;24.220;2023-04-10T07:36:09;97949.72;;;12.56;50.31
55066;BME280;40964;42.114;24.220;2023-04-10T07:38:34;97957.22;;;12.82;50.96
55066;BME280;40964;42.114;24.220;2023-04-10T07:41:00;97957.16;;;13.00;48.71
55066;BME280;40964;42.114;24.220;2023-04-10T07:43:26;97954.03;;;12.80;47.14
55066;BME280;40964;42.114;24.220;2023-04-10T07:45:51;97950.25;;;12.99;47.00
55066;BME280;40964;42.114;24.220;2023-04-10T07:48:17;97948.91;;;13.08;46.86
55066;BME280;40964;42.114;24.220;2023-04-10T07:50:42;97952.50;;;13.49;47.43
55066;BME280;40964;42.114;24.220;2023-04-10T07:53:08;97950.00;;;13.31;46.68
55066;BME280;40964;42.114;24.220;2023-04-10T07:55:44;97950.53;;;13.45;45.10
55066;BME280;40964;42.114;24.220;2023-04-10T07:58:13;97954.81;;;13.57;43.11
55066;BME280;40964;42.114;24.220;2023-04-10T08:00:38;97950.38;;;13.86;45.17
55066;BME280;40964;42.114;24.220;2023-04-10T08:03:04;97949.66;;;14.03;44.68
55066;BME280;40964;42.114;24.220;2023-04-10T08:05:30;97942.16;;;14.11;44.53
55066;BME280;40964;42.114;24.220;2023-04-10T08:07:55;97946.91;;;13.98;45.01
55066;BME280;40964;42.114;24.220;2023-04-10T08:10:21;97942.75;;;14.02;44.20
55066;BME280;40964;42.114;24.220;2023-04-10T08:12:46;97942.84;;;14.07;43.33
55066;BME280;40964;42.114;24.220;2023-04-10T08:15:12;97937.44;;;14.13;44.85
55066;BME280;40964;42.114;24.220;2023-04-10T08:17:37;97938.28;;;14.02;45.13
55066;BME280;40964;42.114;24.220;2023-04-10T08:20:03;97937.91;;;13.58;45.33
55066;BME280;40964;42.114;24.220;2023-04-10T08:22:29;97934.56;;;13.63;45.03
55066;BME280;40964;42.114;24.220;2023-04-10T08:24:55;97933.31;;;14.06;47.58
55066;BME280;40964;42.114;24.220;2023-04-10T08:27:20;97929.63;;;14.35;44.24
55066;BME280;40964;42.114;24.220;2023-04-10T08:29:46;97928.47;;;14.14;43.48
55066;BME280;40964;42.114;24.220;2023-04-10T08:32:11;97924.94;;;14.26;45.18
55066;BME280;40964;42.114;24.220;2023-04-10T08:34:37;97923.78;;;14.05;45.77
55066;BME280;40964;42.114;24.220;2023-04-10T08:37:06;97920.75;;;13.84;44.79
55066;BME280;40964;42.114;24.220;2023-04-10T08:39:34;97922.25;;;14.09;45.14
55066;BME280;40964;42.114;24.220;2023-04-10T08:42:00;97924.03;;;14.32;44.82
55066;BME280;40964;42.114;24.220;2023-04-10T08:44:26;97913.13;;;14.57;44.55
55066;BME280;40964;42.114;24.220;2023-04-10T08:46:51;97910.59;;;14.22;45.44
55066;BME280;40964;42.114;24.220;2023-04-10T08:49:29;97920.66;;;14.65;44.29
55066;BME280;40964;42.114;24.220;2023-04-10T08:51:57;97919.06;;;14.81;43.78
55066;BME280;40964;42.114;24.220;2023-04-10T08:54:34;97908.00;;;14.67;43.74
55066;BME280;40964;42.114;24.220;2023-04-10T08:57:02;97912.03;;;14.12;44.61
55066;BME280;40964;42.114;24.220;2023-04-10T08:59:31;97912.22;;;14.23;43.34
55066;BME280;40964;42.114;24.220;2023-04-10T09:01:57;97896.03;;;14.07;44.42
55066;BME280;40964;42.114;24.220;2023-04-10T09:04:24;97903.59;;;14.15;43.83
55066;BME280;40964;42.114;24.220;2023-04-10T09:06:51;97892.31;;;13.91;45.05
55066;BME280;40964;42.114;24.220;2023-04-10T09:09:16;97890.94;;;13.89;43.64
55066;BME280;40964;42.114;24.220;2023-04-10T09:12:02;97891.78;;;14.35;44.45
55066;BME280;40964;42.114;24.220;2023-04-10T09:14:35;97884.00;;;14.28;44.36
55066;BME280;40964;42.114;24.220;2023-04-10T09:17:21;97894.44;;;14.06;44.63
55066;BME280;40964;42.114;24.220;2023-04-10T09:19:51;97884.25;;;13.98;44.78
55066;BME280;40964;42.114;24.220;2023-04-10T09:22:17;97871.56;;;14.29;46.19
55066;BME280;40964;42.114;24.220;2023-04-10T09:24:45;97880.16;;;14.36;44.47
55066;BME280;40964;42.114;24.220;2023-04-10T09:27:30;97884.97;;;14.22;43.33
55066;BME280;40964;42.114;24.220;2023-04-10T09:29:56;97882.81;;;13.79;42.77
55066;BME280;40964;42.114;24.220;2023-04-10T09:35:06;97879.41;;;13.55;44.58
55066;BME280;40964;42.114;24.220;2023-04-10T09:37:36;97875.50;;;13.69;42.27
55066;BME280;40964;42.114;24.220;2023-04-10T09:40:28;97870.19;;;13.69;42.90
55066;BME280;40964;42.114;24.220;2023-04-10T09:42:55;97867.91;;;14.01;42.94
55066;BME280;40964;42.114;24.220;2023-04-10T09:45:21;97839.19;;;13.64;42.30
55066;BME280;40964;42.114;24.220;2023-04-10T09:48:06;97864.56;;;13.66;42.85
55066;BME280;40964;42.114;24.220;2023-04-10T09:50:36;97872.31;;;13.44;43.18
55066;BME280;40964;42.114;24.220;2023-04-10T09:53:02;97865.81;;;13.23;43.93
55066;BME280;40964;42.114;24.220;2023-04-10T09:55:27;97860.28;;;13.13;44.86
55066;BME280;40964;42.114;24.220;2023-04-10T09:57:54;97860.97;;;13.08;45.92
55066;BME280;40964;42.114;24.220;2023-04-10T10:00:20;97860.50;;;12.99;45.35
55066;BME280;40964;42.114;24.220;2023-04-10T10:02:47;97858.78;;;12.93;44.82
55066;BME280;40964;42.114;24.220;2023-04-10T10:05:13;97847.38;;;12.58;44.67
55066;BME280;40964;42.114;24.220;2023-04-10T10:07:40;97859.22;;;12.55;45.37
55066;BME280;40964;42.114;24.220;2023-04-10T10:10:06;97871.59;;;12.43;45.41
55066;BME280;40964;42.114;24.220;2023-04-10T10:12:47;97860.00;;;12.44;47.16
55066;BME280;40964;42.114;24.220;2023-04-10T10:15:22;97862.38;;;12.34;47.17
55066;BME280;40964;42.114;24.220;2023-04-10T10:18:02;97862.34;;;12.22;49.89
55066;BME280;40964;42.114;24.220;2023-04-10T10:20:29;97862.69;;;12.14;52.03
55066;BME280;40964;42.114;24.220;2023-04-10T10:22:57;97854.91;;;11.89;54.11
55066;BME280;40964;42.114;24.220;2023-04-10T10:25:23;97862.72;;;11.77;55.52
55066;BME280;40964;42.114;24.220;2023-04-10T10:27:50;97861.41;;;11.68;57.51
55066;BME280;40964;42.114;24.220;2023-04-10T10:30:18;97861.34;;;11.56;57.86
55066;BME280;40964;42.114;24.220;2023-04-10T10:32:45;97862.97;;;11.39;57.31
55066;BME280;40964;42.114;24.220;2023-04-10T10:35:11;97858.59;;;11.33;58.49
55066;BME280;40964;42.114;24.220;2023-04-10T10:37:38;97852.88;;;11.36;58.03
55066;BME280;40964;42.114;24.220;2023-04-10T10:41:12;97841.38;;;11.30;59.06
55066;BME280;40964;42.114;24.220;2023-04-10T10:46:06;97847.97;;;11.40;58.49
55066;BME280;40964;42.114;24.220;2023-04-10T10:48:33;97839.41;;;11.44;59.40
55066;BME280;40964;42.114;24.220;2023-04-10T10:50:59;97838.75;;;11.49;57.66
55066;BME280;40964;42.114;24.220;2023-04-10T10:55:58;97835.59;;;11.58;56.75
55066;BME280;40964;42.114;24.220;2023-04-10T11:01:13;97843.81;;;11.50;57.58
55066;BME280;40964;42.114;24.220;2023-04-10T11:03:40;97839.75;;;11.66;54.97
55066;BME280;40964;42.114;24.220;2023-04-10T11:06:16;97830.97;;;11.72;55.62
55066;BME280;40964;42.114;24.220;2023-04-10T11:11:23;97826.03;;;11.94;53.88
55066;BME280;40964;42.114;24.220;2023-04-10T11:16:16;97837.53;;;12.41;53.61
55066;BME280;40964;42.114;24.220;2023-04-10T11:21:17;97836.56;;;12.24;49.88
55066;BME280;40964;42.114;24.220;2023-04-10T11:31:36;97834.09;;;12.53;49.78
55066;BME280;40964;42.114;24.220;2023-04-10T11:34:05;97825.03;;;12.72;49.90
55066;BME280;40964;42.114;24.220;2023-04-10T11:36:32;97822.28;;;12.90;52.51
55066;BME280;40964;42.114;24.220;2023-04-10T11:39:06;97821.47;;;13.01;51.29
55066;BME280;40964;42.114;24.220;2023-04-10T11:41:39;97831.47;;;12.88;49.05
55066;BME280;40964;42.114;24.220;2023-04-10T11:44:06;97826.41;;;12.74;49.12
55066;BME280;40964;42.114;24.220;2023-04-10T11:46:36;97827.22;;;12.75;50.11
55066;BME280;40964;42.114;24.220;2023-04-10T11:49:05;97826.78;;;12.78;49.94
55066;BME280;40964;42.114;24.220;2023-04-10T11:51:31;97831.59;;;12.81;48.65
55066;BME280;40964;42.114;24.220;2023-04-10T11:54:11;97826.06;;;12.83;49.74
55066;BME280;40964;42.114;24.220;2023-04-10T11:56:41;97819.53;;;12.73;51.39
55066;BME280;40964;42.114;24.220;2023-04-10T11:59:08;97821.59;;;12.71;51.97
55066;BME280;40964;42.114;24.220;2023-04-10T12:01:41;97825.84;;;12.72;51.69
55066;BME280;40964;42.114;24.220;2023-04-10T12:04:18;97817.13;;;12.72;51.92
55066;BME280;40964;42.114;24.220;2023-04-10T12:06:48;97818.50;;;12.74;51.99
55066;BME280;40964;42.114;24.220;2023-04-10T12:09:15;97817.47;;;12.64;51.93
55066;BME280;40964;42.114;24.220;2023-04-10T12:11:58;97812.19;;;12.75;52.89
55066;BME280;40964;42.114;24.220;2023-04-10T12:14:30;97808.31;;;12.78;54.16
55066;BME280;40964;42.114;24.220;2023-04-10T12:16:56;97809.00;;;12.85;53.23
55066;BME280;40964;42.114;24.220;2023-04-10T12:19:22;97806.56;;;12.84;53.31
55066;BME280;40964;42.114;24.220;2023-04-10T12:21:48;97810.38;;;12.88;51.85
55066;BME280;40964;42.114;24.220;2023-04-10T12:27:19;97797.97;;;12.88;50.19
55066;BME280;40964;42.114;24.220;2023-04-10T12:29:45;97802.53;;;12.93;50.65
55066;BME280;40964;42.114;24.220;2023-04-10T12:32:11;97797.25;;;12.93;49.79
55066;BME280;40964;42.114;24.220;2023-04-10T12:34:37;97786.09;;;13.02;51.88
55066;BME280;40964;42.114;24.220;2023-04-10T12:37:02;97787.25;;;13.18;52.71
55066;BME280;40964;42.114;24.220;2023-04-10T12:39:28;97794.50;;;13.23;53.05
55066;BME280;40964;42.114;24.220;2023-04-10T12:42:15;97780.81;;;13.26;53.43
55066;BME280;40964;42.114;24.220;2023-04-10T12:44:53;97779.63;;;13.45;53.48
55066;BME280;40964;42.114;24.220;2023-04-10T12:47:20;97764.88;;;13.61;52.07
55066;BME280;40964;42.114;24.220;2023-04-10T12:52:29;97768.06;;;14.08;50.79
55066;BME280;40964;42.114;24.220;2023-04-10T12:55:10;97765.59;;;14.18;49.87
55066;BME280;40964;42.114;24.220;2023-04-10T12:57:36;97770.72;;;14.25;48.80
55066;BME280;40964;42.114;24.220;2023-04-10T13:00:05;97762.13;;;14.18;48.64
55066;BME280;40964;42.114;24.220;2023-04-10T13:02:30;97767.59;;;14.11;47.05
55066;BME280;40964;42.114;24.220;2023-04-10T13:04:56;97763.41;;;13.99;47.97
55066;BME280;40964;42.114;24.220;2023-04-10T13:07:21;97747.06;;;14.02;48.65
55066;BME280;40964;42.114;24.220;2023-04-10T13:09:47;97755.56;;;14.04;48.39
55066;BME280;40964;42.114;24.220;2023-04-10T13:12:13;97744.59;;;13.95;49.82
55066;BME280;40964;42.114;24.220;2023-04-10T13:14:39;97750.44;;;13.97;51.03
55066;BME280;40964;42.114;24.220;2023-04-10T13:17:04;97743.84;;;14.00;48.73
55066;BME280;40964;42.114;24.220;2023-04-10T13:19:30;97738.25;;;13.96;50.99
55066;BME280;40964;42.114;24.220;2023-04-10T13:21:55;97736.28;;;13.75;50.90
55066;BME280;40964;42.114;24.220;2023-04-10T13:24:21;97738.38;;;13.73;51.88
55066;BME280;40964;42.114;24.220;2023-04-10T13:26:46;97730.25;;;13.62;51.38
55066;BME280;40964;42.114;24.220;2023-04-10T13:29:11;97724.44;;;13.60;52.08
55066;BME280;40964;42.114;24.220;2023-04-10T13:31:37;97712.13;;;13.66;52.48
55066;BME280;40964;42.114;24.220;2023-04-10T13:34:02;97717.41;;;13.83;51.27
55066;BME280;40964;42.114;24.220;2023-04-10T13:36:28;97712.84;;;13.78;51.89
55066;BME280;40964;42.114;24.220;2023-04-10T13:38:54;97706.09;;;13.71;50.52
55066;BME280;40964;42.114;24.220;2023-04-10T13:41:19;97708.91;;;13.81;50.71